Terminal Aerodrome Forecast
Issued by NWS

Home | Current Version | Previous Version | Text Only | Print | Product List | Glossary Off
Versions: 1 2 3 4 5 6 7 8 9 10 11 12 13 14 15 16 17 18 19 20

000
FTUS43 KICT 072200 AAC
TAFRSL
TAF AMD
KRSL 072200Z 0722/0818 35009KT P6SM OVC022
     FM080200 32009KT P6SM BKN035
     FM080500 31009KT P6SM SCT040=

USA.gov is the U.S. government's official web portal to all federal, state and local government web resources and services.